createdAt,value
2018-04-02T00:01:42.638Z,26.26
2018-04-02T00:04:09.341Z,26.36
2018-04-02T00:06:35.954Z,26.34
2018-04-02T00:09:02.685Z,26.35
2018-04-02T00:11:29.290Z,26.36
2018-04-02T00:13:57.693Z,26.40
2018-04-02T00:16:22.639Z,26.43
2018-04-02T00:18:49.284Z,26.40
2018-04-02T00:21:19.006Z,26.43
2018-04-02T00:23:45.698Z,26.54
2018-04-02T00:26:12.412Z,26.51
2018-04-02T00:28:39.008Z,26.57
2018-04-02T00:31:05.652Z,26.52
2018-04-02T00:33:32.354Z,26.50
2018-04-02T00:35:59.065Z,26.53
2018-04-02T00:38:25.801Z,26.57
2018-04-02T00:40:52.527Z,26.51
2018-04-02T00:43:19.211Z,26.54
2018-04-02T00:45:45.808Z,26.57
2018-04-02T00:48:14.346Z,26.60
2018-04-02T00:50:39.154Z,26.59
2018-04-02T00:53:05.753Z,26.58
2018-04-02T00:55:33.624Z,26.57
2018-04-02T00:58:00.260Z,26.61
2018-04-02T01:00:26.908Z,26.60
2018-04-02T01:02:53.574Z,26.64
2018-04-02T01:05:20.205Z,26.69
2018-04-02T01:07:46.799Z,26.72
2018-04-02T01:10:14.044Z,26.74
2018-04-02T01:12:40.703Z,26.71
2018-04-02T01:15:07.337Z,26.75
2018-04-02T01:17:34.043Z,26.74
2018-04-02T01:20:00.713Z,26.78
2018-04-02T01:22:27.351Z,26.77
2018-04-02T01:24:54.122Z,26.79
2018-04-02T01:27:20.799Z,26.75
2018-04-02T01:29:47.432Z,26.76
2018-04-02T01:32:14.074Z,26.80
2018-04-02T01:34:40.677Z,26.83
2018-04-02T01:37:07.315Z,26.77
2018-04-02T01:39:36.102Z,26.80
2018-04-02T01:42:02.713Z,26.83
2018-04-02T01:44:29.316Z,26.85
2018-04-02T01:46:58.826Z,26.87
2018-04-02T01:49:25.528Z,26.87
2018-04-02T01:51:52.269Z,26.84
2018-04-02T01:54:18.907Z,26.90
2018-04-02T01:56:45.586Z,26.87
2018-04-02T01:59:12.218Z,26.82
2018-04-02T02:01:40.257Z,26.88
2018-04-02T02:04:05.525Z,26.89
2018-04-02T02:06:32.172Z,26.90
2018-04-02T02:08:58.971Z,26.92
2018-04-02T02:11:27.377Z,26.95
2018-04-02T02:13:53.999Z,26.93
2018-04-02T02:16:20.628Z,26.91
2018-04-02T02:18:47.342Z,26.92
2018-04-02T02:21:13.943Z,26.92
2018-04-02T02:23:40.617Z,26.94
2018-04-02T02:26:07.208Z,26.93
2018-04-02T02:28:33.839Z,26.96
2018-04-02T02:31:00.514Z,26.95
2018-04-02T02:33:27.191Z,26.99
2018-04-02T02:35:53.828Z,27.00
2018-04-02T02:38:20.463Z,27.00
2018-04-02T02:40:47.926Z,27.01
2018-04-02T02:43:14.564Z,26.96
2018-04-02T02:45:41.209Z,26.96
2018-04-02T02:48:09.754Z,27.03
2018-04-02T02:50:34.508Z,26.99
2018-04-02T02:53:01.152Z,27.02
2018-04-02T02:55:27.785Z,27.04
2018-04-02T02:57:55.522Z,27.03
2018-04-02T03:00:21.111Z,27.02
2018-04-02T03:02:47.704Z,27.01
2018-04-02T03:05:16.389Z,27.02
2018-04-02T03:07:40.984Z,27.04
2018-04-02T03:10:09.462Z,26.87
2018-04-02T03:12:34.986Z,26.90
2018-04-02T03:15:01.635Z,26.92
2018-04-02T03:17:28.306Z,27.18
2018-04-02T03:19:56.221Z,27.61
2018-04-02T03:22:22.862Z,27.92
2018-04-02T03:24:49.500Z,28.17
2018-04-02T03:27:16.172Z,28.53
2018-04-02T03:29:42.771Z,27.92
2018-04-02T03:32:09.433Z,27.51
2018-04-02T03:34:36.150Z,27.28
2018-04-02T03:37:04.142Z,27.09
2018-04-02T03:39:29.427Z,27.17
2018-04-02T03:41:56.102Z,27.09
2018-04-02T03:44:24.567Z,26.48
2018-04-02T03:46:49.338Z,26.09
2018-04-02T03:49:15.997Z,25.95
2018-04-02T03:51:42.726Z,25.83
2018-04-02T03:54:09.334Z,25.78
2018-04-02T03:56:36.015Z,25.70
2018-04-02T03:59:02.815Z,25.56
2018-04-02T04:01:29.422Z,25.57
2018-04-02T04:03:56.052Z,25.48
2018-04-02T04:06:22.687Z,25.33
2018-04-02T04:08:49.326Z,25.27
2018-04-02T04:11:16.054Z,25.23
2018-04-02T04:13:42.733Z,25.12
2018-04-02T04:16:09.327Z,25.10
2018-04-02T04:18:36.064Z,25.07
2018-04-02T04:21:04.849Z,25.18
2018-04-02T04:23:31.567Z,25.04
2018-04-02T04:25:58.238Z,24.82
2018-04-02T04:28:24.882Z,24.91
2018-04-02T04:30:52.911Z,24.70
2018-04-02T04:33:18.297Z,24.47
2018-04-02T04:35:45.926Z,24.24
2018-04-02T04:38:12.564Z,24.68
2018-04-02T04:40:39.199Z,23.86
2018-04-02T04:43:05.874Z,23.59
2018-04-02T04:45:32.506Z,23.65
2018-04-02T04:47:59.224Z,23.59
2018-04-02T04:50:25.893Z,24.04
2018-04-02T04:52:52.502Z,24.10
2018-04-02T04:55:19.173Z,24.37
2018-04-02T04:57:45.821Z,24.31
2018-04-02T05:00:13.766Z,24.25
2018-04-02T05:02:39.096Z,24.26
2018-04-02T05:05:05.755Z,24.31
2018-04-02T05:07:32.427Z,24.32
2018-04-02T05:10:01.987Z,24.31
2018-04-02T05:12:28.627Z,24.16
2018-04-02T05:14:55.251Z,24.11
2018-04-02T05:17:21.973Z,24.04
2018-04-02T05:19:48.558Z,24.20
2018-04-02T05:22:16.498Z,24.65
2018-04-02T05:24:41.878Z,24.45
2018-04-02T05:27:11.820Z,24.09
2018-04-02T05:29:38.539Z,24.00
2018-04-02T05:32:05.151Z,24.09
2018-04-02T05:34:31.815Z,24.28
2018-04-02T05:36:58.459Z,24.06
2018-04-02T05:39:25.179Z,24.01
2018-04-02T05:41:51.865Z,23.99
2018-04-02T05:44:18.590Z,23.98
2018-04-02T05:46:45.306Z,24.36
2018-04-02T05:49:11.906Z,24.35
2018-04-02T05:51:38.866Z,24.02
2018-04-02T05:54:10.159Z,23.96
2018-04-02T05:56:36.956Z,24.22
2018-04-02T05:59:04.626Z,24.34
2018-04-02T06:01:30.247Z,24.14
2018-04-02T06:03:56.920Z,24.12
2018-04-02T06:06:23.570Z,24.41
2018-04-02T06:08:50.291Z,24.34
2018-04-02T06:11:16.920Z,24.41
2018-04-02T06:13:44.205Z,24.33
2018-04-02T06:16:11.029Z,24.39
2018-04-02T06:18:37.676Z,24.33
2018-04-02T06:21:04.381Z,24.31
2018-04-02T06:23:31.007Z,24.25
2018-04-02T06:25:57.772Z,24.22
2018-04-02T06:28:24.422Z,24.24
2018-04-02T06:30:51.075Z,24.21
2018-04-02T06:33:17.816Z,24.27
2018-04-02T06:35:44.481Z,24.19
2018-04-02T06:38:11.171Z,24.12
2018-04-02T06:40:37.820Z,24.14
2018-04-02T06:43:04.495Z,24.15
2018-04-02T06:45:31.145Z,24.03
2018-04-02T06:48:00.735Z,24.05
2018-04-02T06:50:27.401Z,23.86
2018-04-02T06:52:54.179Z,23.75
2018-04-02T06:55:20.854Z,23.74
2018-04-02T06:57:47.530Z,23.83
2018-04-02T07:00:14.206Z,23.94
2018-04-02T07:02:40.827Z,23.92
2018-04-02T07:05:07.506Z,23.88
2018-04-02T07:07:34.210Z,23.85
2018-04-02T07:10:00.856Z,23.88
2018-04-02T07:12:27.584Z,23.89
2018-04-02T07:14:54.254Z,24.02
2018-04-02T07:17:20.893Z,24.12
2018-04-02T07:19:47.506Z,23.88
2018-04-02T07:22:14.214Z,23.91
2018-04-02T07:24:40.860Z,24.25
2018-04-02T07:27:07.501Z,24.26
2018-04-02T07:29:34.190Z,24.21
2018-04-02T07:32:00.831Z,23.85
2018-04-02T07:34:27.479Z,24.09
2018-04-02T07:36:54.121Z,23.99
2018-04-02T07:39:20.794Z,24.09
2018-04-02T07:41:47.445Z,23.94
2018-04-02T07:44:15.378Z,23.99
2018-04-02T07:46:40.794Z,24.38
2018-04-02T07:49:07.488Z,24.59
2018-04-02T07:51:34.139Z,24.62
2018-04-02T07:54:00.782Z,24.28
2018-04-02T07:56:27.451Z,23.99
2018-04-02T07:58:54.108Z,23.62
2018-04-02T08:01:20.756Z,23.45
2018-04-02T08:03:47.390Z,23.01
2018-04-02T08:06:14.262Z,22.78
2018-04-02T08:08:41.213Z,23.23
2018-04-02T08:11:07.855Z,23.22
2018-04-02T08:13:34.424Z,23.47
2018-04-02T08:16:03.771Z,23.30
2018-04-02T08:18:30.385Z,23.36
2018-04-02T08:20:57.284Z,23.69
2018-04-02T08:23:23.984Z,23.28
2018-04-02T08:25:50.698Z,23.39
2018-04-02T08:28:19.845Z,23.46
2018-04-02T08:30:46.464Z,23.37
2018-04-02T08:33:13.215Z,23.39
2018-04-02T08:35:39.877Z,23.66
2018-04-02T08:38:06.849Z,23.64
2018-04-02T08:40:35.670Z,23.28
2018-04-02T08:43:01.712Z,23.17
2018-04-02T08:45:26.948Z,23.00
2018-04-02T08:47:53.678Z,23.08
2018-04-02T08:50:20.377Z,22.50
2018-04-02T08:52:47.100Z,22.75
2018-04-02T08:55:13.776Z,22.59
2018-04-02T08:57:41.506Z,22.91
2018-04-02T09:00:08.703Z,22.81
2018-04-02T09:02:35.874Z,23.08
2018-04-02T09:05:02.656Z,22.96
2018-04-02T09:07:29.845Z,23.22
2018-04-02T09:09:56.538Z,23.17
2018-04-02T09:12:28.657Z,23.19
2018-04-02T09:15:05.716Z,23.20
2018-04-02T09:17:32.505Z,23.29
2018-04-02T09:20:00.228Z,23.28
2018-04-02T09:22:27.234Z,23.55
2018-04-02T09:24:56.796Z,23.58
2018-04-02T09:27:23.395Z,23.97
2018-04-02T09:29:50.053Z,23.87
2018-04-02T09:32:16.775Z,23.95
2018-04-02T09:34:43.598Z,24.08
2018-04-02T09:37:10.310Z,24.07
2018-04-02T09:39:37.104Z,24.17
2018-04-02T09:42:03.810Z,24.19
2018-04-02T09:44:30.470Z,24.18
2018-04-02T09:46:57.196Z,24.18
2018-04-02T09:49:23.858Z,24.23
2018-04-02T09:51:50.502Z,24.22
2018-04-02T09:54:17.252Z,24.21
2018-04-02T09:56:43.871Z,24.37
2018-04-02T09:59:10.603Z,24.35
2018-04-02T10:01:37.329Z,24.25
2018-04-02T10:04:06.873Z,24.26
2018-04-02T10:06:33.491Z,24.19
2018-04-02T10:09:00.181Z,24.27
2018-04-02T10:11:26.890Z,24.19
2018-04-02T10:13:53.530Z,24.05
2018-04-02T10:16:20.185Z,24.07
2018-04-02T10:18:50.006Z,24.14
2018-04-02T10:21:16.651Z,24.15
2018-04-02T10:23:43.293Z,24.24
2018-04-02T10:26:09.973Z,24.10
2018-04-02T10:28:36.626Z,24.12
2018-04-02T10:31:03.377Z,24.18
2018-04-02T10:33:31.946Z,24.20
2018-04-02T10:35:58.684Z,24.26
2018-04-02T10:38:25.400Z,24.33
2018-04-02T10:40:55.656Z,24.51
2018-04-02T10:43:20.780Z,24.53
2018-04-02T10:45:49.784Z,24.71
2018-04-02T10:48:16.529Z,24.68
2018-04-02T10:50:43.198Z,24.75
2018-04-02T10:53:11.196Z,24.80
2018-04-02T10:55:36.484Z,24.80
2018-04-02T10:58:03.163Z,24.76
2018-04-02T11:00:29.886Z,24.87
2018-04-02T11:02:56.531Z,25.00
2018-04-02T11:05:23.257Z,24.75
2018-04-02T11:07:50.034Z,24.86
2018-04-02T11:10:16.658Z,24.86
2018-04-02T11:12:46.518Z,24.82
2018-04-02T11:15:16.819Z,24.84
2018-04-02T11:17:41.023Z,24.91
2018-04-02T11:20:07.796Z,24.84
2018-04-02T11:22:34.659Z,24.83
2018-04-02T11:25:01.343Z,24.81
2018-04-02T11:27:28.902Z,24.74
2018-04-02T11:29:55.509Z,24.56
2018-04-02T11:32:22.342Z,24.41
2018-04-02T11:34:49.057Z,24.32
2018-04-02T11:37:15.896Z,24.56
2018-04-02T11:39:42.730Z,24.51
2018-04-02T11:42:09.315Z,24.51
2018-04-02T11:44:37.508Z,24.57
2018-04-02T11:47:02.882Z,24.27
2018-04-02T11:49:29.568Z,24.37
2018-04-02T11:51:56.316Z,24.11
2018-04-02T11:54:23.043Z,24.05
2018-04-02T11:56:49.758Z,24.02
2018-04-02T11:59:18.496Z,24.17
2018-04-02T12:01:43.165Z,24.17
2018-04-02T12:04:09.831Z,23.60
2018-04-02T12:06:36.545Z,23.99
2018-04-02T12:09:03.386Z,23.63
2018-04-02T12:11:30.178Z,23.72
2018-04-02T12:13:56.862Z,23.79
2018-04-02T12:16:23.622Z,24.04
2018-04-02T12:18:50.275Z,24.00
2018-04-02T12:21:16.949Z,23.53
2018-04-02T12:23:43.605Z,23.56
2018-04-02T12:26:10.209Z,23.27
2018-04-02T12:28:39.065Z,23.47
2018-04-02T12:31:05.932Z,23.53
2018-04-02T12:33:32.598Z,23.19
2018-04-02T12:35:59.267Z,23.41
2018-04-02T12:38:25.991Z,23.14
2018-04-02T12:40:52.622Z,23.24
2018-04-02T12:43:19.589Z,23.43
2018-04-02T12:45:46.224Z,23.42
2018-04-02T12:48:12.876Z,23.27
2018-04-02T12:50:40.995Z,23.13
2018-04-02T12:53:06.242Z,23.18
2018-04-02T12:55:32.888Z,22.93
2018-04-02T12:57:59.521Z,22.91
2018-04-02T13:00:26.257Z,22.80
2018-04-02T13:02:52.940Z,22.75
2018-04-02T13:05:19.626Z,22.67
2018-04-02T13:07:47.310Z,22.58
2018-04-02T13:10:14.119Z,22.63
2018-04-02T13:12:40.744Z,22.66
2018-04-02T13:15:07.447Z,22.71
2018-04-02T13:17:34.019Z,22.68
2018-04-02T13:20:00.795Z,23.03
2018-04-02T13:22:27.471Z,23.04
2018-04-02T13:24:54.110Z,23.36
2018-04-02T13:27:20.754Z,22.69
2018-04-02T13:29:47.489Z,22.34
2018-04-02T13:32:14.223Z,22.27
2018-04-02T13:34:41.011Z,22.32
2018-04-02T13:37:07.674Z,22.53
2018-04-02T13:39:34.454Z,22.55
2018-04-02T13:42:01.422Z,22.53
2018-04-02T13:44:28.963Z,22.29
2018-04-02T13:46:55.770Z,22.68
2018-04-02T13:49:22.420Z,22.74
2018-04-02T13:51:49.169Z,22.68
2018-04-02T13:54:15.848Z,22.59
2018-04-02T13:56:45.725Z,22.38
2018-04-02T13:59:12.332Z,22.87
2018-04-02T14:01:39.065Z,22.74
2018-04-02T14:04:07.107Z,22.57
2018-04-02T14:06:32.400Z,22.35
2018-04-02T14:08:59.103Z,22.53
2018-04-02T14:11:25.797Z,22.52
2018-04-02T14:13:52.528Z,22.32
2018-04-02T14:16:19.288Z,22.77
2018-04-02T14:18:45.935Z,22.80
2018-04-02T14:21:12.583Z,22.72
2018-04-02T14:23:39.284Z,22.61
2018-04-02T14:26:07.173Z,22.69
2018-04-02T14:28:33.934Z,22.55
2018-04-02T14:31:00.577Z,22.51
2018-04-02T14:33:27.320Z,22.45
2018-04-02T14:35:53.976Z,22.41
2018-04-02T14:38:20.680Z,22.11
2018-04-02T14:40:47.315Z,22.00
2018-04-02T14:43:14.005Z,22.18
2018-04-02T14:45:40.642Z,22.17
2018-04-02T14:48:07.319Z,21.90
2018-04-02T14:50:33.941Z,21.76
2018-04-02T14:53:00.682Z,21.87
2018-04-02T14:55:30.233Z,21.85
2018-04-02T14:57:57.048Z,21.68
2018-04-02T15:00:27.234Z,21.61
2018-04-02T15:02:53.926Z,21.56
2018-04-02T15:05:20.569Z,21.39
2018-04-02T15:07:50.183Z,21.28
2018-04-02T15:10:16.864Z,21.30
2018-04-02T15:12:43.720Z,21.26
2018-04-02T15:15:10.399Z,21.14
2018-04-02T15:17:37.060Z,21.21
2018-04-02T15:20:03.716Z,20.84
2018-04-02T15:22:30.343Z,20.77
2018-04-02T15:24:57.038Z,20.91
2018-04-02T15:27:23.724Z,20.91
2018-04-02T15:29:50.401Z,20.78
2018-04-02T15:32:17.155Z,20.73
2018-04-02T15:34:43.808Z,20.79
2018-04-02T15:37:10.473Z,20.73
2018-04-02T15:39:37.207Z,20.51
2018-04-02T15:42:05.913Z,20.95
2018-04-02T15:44:31.026Z,20.62
2018-04-02T15:46:57.711Z,20.58
2018-04-02T15:49:27.204Z,20.52
2018-04-02T15:51:53.976Z,20.48
2018-04-02T15:54:20.652Z,20.48
2018-04-02T15:56:47.297Z,20.50
2018-04-02T15:59:14.027Z,20.42
2018-04-02T16:01:40.755Z,20.45
2018-04-02T16:04:07.393Z,20.59
2018-04-02T16:06:34.014Z,20.51
2018-04-02T16:09:00.690Z,20.64
2018-04-02T16:11:27.330Z,20.62
2018-04-02T16:13:59.281Z,20.62
2018-04-02T16:16:23.607Z,20.54
2018-04-02T16:18:50.285Z,20.51
2018-04-02T16:21:18.285Z,20.51
2018-04-02T16:23:43.647Z,20.19
2018-04-02T16:26:10.322Z,20.18
2018-04-02T16:28:36.998Z,20.24
2018-04-02T16:31:05.003Z,20.20
2018-04-02T16:33:30.302Z,20.25
2018-04-02T16:35:56.978Z,20.20
2018-04-02T16:38:23.622Z,20.17
2018-04-02T16:40:51.071Z,20.10
2018-04-02T16:43:17.779Z,20.03
2018-04-02T16:45:44.591Z,19.98
2018-04-02T16:48:11.303Z,19.92
2018-04-02T16:50:37.941Z,19.83
2018-04-02T16:53:04.636Z,19.78
2018-04-02T16:55:31.312Z,19.74
2018-04-02T16:57:58.047Z,19.70
2018-04-02T17:00:26.106Z,19.64
2018-04-02T17:02:51.341Z,19.46
2018-04-02T17:05:17.993Z,19.49
2018-04-02T17:07:44.654Z,19.50
2018-04-02T17:10:11.307Z,19.48
2018-04-02T17:12:37.935Z,19.43
2018-04-02T17:15:04.656Z,19.41
2018-04-02T17:17:34.067Z,19.36
2018-04-02T17:20:00.831Z,19.33
2018-04-02T17:22:27.468Z,19.29
2018-04-02T17:24:54.098Z,19.30
2018-04-02T17:27:20.807Z,19.28
2018-04-02T17:29:47.596Z,19.22
2018-04-02T17:32:14.286Z,19.20
2018-04-02T17:34:40.931Z,19.16
2018-04-02T17:37:07.596Z,19.14
2018-04-02T17:39:34.238Z,19.11
2018-04-02T17:42:00.953Z,19.05
2018-04-02T17:44:27.713Z,18.99
2018-04-02T17:46:55.732Z,19.01
2018-04-02T17:49:22.426Z,19.03
2018-04-02T17:51:47.696Z,19.05
2018-04-02T17:54:17.201Z,19.03
2018-04-02T17:56:43.883Z,19.02
2018-04-02T17:59:10.566Z,19.04
2018-04-02T18:01:37.246Z,19.01
2018-04-02T18:04:03.976Z,19.00
2018-04-02T18:06:30.689Z,19.05
2018-04-02T18:08:57.291Z,18.89
2018-04-02T18:11:24.038Z,18.93
2018-04-02T18:13:51.885Z,18.97
2018-04-02T18:16:17.357Z,19.00
2018-04-02T18:18:43.989Z,18.91
2018-04-02T18:21:10.694Z,18.97
2018-04-02T18:23:37.336Z,18.99
2018-04-02T18:26:06.406Z,18.95
2018-04-02T18:28:33.058Z,18.96
2018-04-02T18:31:00.557Z,18.95
2018-04-02T18:33:27.202Z,18.92
2018-04-02T18:35:53.981Z,18.96
2018-04-02T18:38:20.706Z,18.96
2018-04-02T18:40:48.383Z,18.94
2018-04-02T18:43:16.264Z,18.92
2018-04-02T18:45:42.861Z,18.88
2018-04-02T18:48:09.517Z,18.89
2018-04-02T18:50:36.219Z,18.87
2018-04-02T18:53:02.829Z,18.87
2018-04-02T18:55:29.506Z,18.84
2018-04-02T18:57:56.234Z,18.84
2018-04-02T19:00:23.006Z,18.82
2018-04-02T19:05:16.853Z,18.81
2018-04-02T19:07:43.556Z,18.82
2018-04-02T19:10:10.259Z,18.79
2018-04-02T19:12:36.902Z,18.77
2018-04-02T19:15:03.593Z,18.76
2018-04-02T19:17:30.238Z,18.77
2018-04-02T19:19:56.896Z,18.75
2018-04-02T19:22:23.673Z,18.74
2018-04-02T19:24:53.107Z,18.73
2018-04-02T19:27:19.758Z,18.72
2018-04-02T19:29:46.498Z,18.72
2018-04-02T19:32:13.198Z,18.72
2018-04-02T19:34:39.868Z,18.69
2018-04-02T19:37:06.588Z,18.71
2018-04-02T19:39:33.200Z,18.68
2018-04-02T19:41:59.832Z,18.66
2018-04-02T19:44:26.492Z,18.69
2018-04-02T19:46:53.331Z,18.61
2018-04-02T19:49:19.929Z,18.65
2018-04-02T19:51:46.605Z,18.66
2018-04-02T19:54:13.215Z,18.61
2018-04-02T19:56:39.844Z,18.63
2018-04-02T19:59:06.485Z,18.59
2018-04-02T20:01:33.162Z,18.59
2018-04-02T20:03:59.795Z,18.60
2018-04-02T20:06:26.423Z,18.53
2018-04-02T20:08:53.084Z,18.58
2018-04-02T20:11:20.880Z,18.54
2018-04-02T20:13:46.383Z,18.55
2018-04-02T20:16:12.986Z,18.50
2018-04-02T20:18:39.659Z,18.53
2018-04-02T20:21:07.659Z,18.47
2018-04-02T20:23:32.996Z,18.48
2018-04-02T20:25:59.784Z,18.47
2018-04-02T20:28:26.416Z,18.45
2018-04-02T20:30:54.393Z,18.41
2018-04-02T20:33:19.718Z,18.41
2018-04-02T20:35:46.440Z,18.43
2018-04-02T20:38:13.149Z,18.39
2018-04-02T20:40:39.886Z,18.40
2018-04-02T20:43:06.485Z,18.38
2018-04-02T20:45:33.213Z,18.38
2018-04-02T20:47:59.816Z,18.39
2018-04-02T20:50:26.489Z,18.37
2018-04-02T20:52:53.101Z,18.34
2018-04-02T20:55:19.738Z,18.38
2018-04-02T20:57:46.375Z,18.34
2018-04-02T21:00:13.144Z,18.35
2018-04-02T21:02:39.779Z,18.34
2018-04-02T21:05:06.412Z,18.35
2018-04-02T21:07:33.132Z,18.27
2018-04-02T21:09:59.765Z,18.30
2018-04-02T21:12:26.363Z,18.25
2018-04-02T21:14:53.029Z,18.28
2018-04-02T21:17:19.701Z,18.24
2018-04-02T21:19:46.340Z,18.25
2018-04-02T21:22:13.035Z,18.24
2018-04-02T21:24:41.868Z,18.22
2018-04-02T21:27:06.321Z,18.05
2018-04-02T21:29:32.964Z,18.12
2018-04-02T21:31:59.608Z,18.20
2018-04-02T21:34:26.197Z,18.25
2018-04-02T21:36:52.831Z,18.33
2018-04-02T21:39:19.459Z,18.24
2018-04-02T21:41:46.169Z,18.23
2018-04-02T21:44:13.104Z,18.22
2018-04-02T21:46:39.745Z,18.21
2018-04-02T21:49:06.344Z,18.20
2018-04-02T21:51:33.026Z,18.21
2018-04-02T21:53:59.639Z,18.23
2018-04-02T21:56:26.240Z,18.25
2018-04-02T21:58:52.866Z,18.23
2018-04-02T22:01:19.548Z,18.24
2018-04-02T22:03:46.150Z,18.25
2018-04-02T22:06:12.872Z,18.20
2018-04-02T22:08:39.521Z,18.28
2018-04-02T22:11:06.206Z,18.27
2018-04-02T22:13:32.801Z,18.25
2018-04-02T22:15:59.442Z,18.22
2018-04-02T22:18:26.151Z,18.22
2018-04-02T22:20:52.791Z,18.21
2018-04-02T22:23:19.421Z,18.23
2018-04-02T22:25:46.127Z,18.19
2018-04-02T22:28:12.764Z,18.18
2018-04-02T22:30:39.402Z,18.17
2018-04-02T22:33:06.133Z,18.19
2018-04-02T22:35:32.737Z,18.19
2018-04-02T22:37:59.423Z,18.20
2018-04-02T22:40:26.093Z,18.19
2018-04-02T22:42:52.734Z,18.16
2018-04-02T22:45:19.429Z,18.14
2018-04-02T22:47:46.065Z,18.13
2018-04-02T22:50:12.706Z,18.09
2018-04-02T22:52:39.343Z,18.13
2018-04-02T22:55:05.973Z,18.10
2018-04-02T22:57:32.619Z,18.10
2018-04-02T23:00:01.028Z,18.09
2018-04-02T23:02:29.181Z,18.08
2018-04-02T23:04:54.310Z,18.09
2018-04-02T23:07:20.954Z,18.07
2018-04-02T23:09:47.702Z,18.08
2018-04-02T23:12:14.331Z,18.05
2018-04-02T23:14:41.014Z,18.05
2018-04-02T23:17:07.607Z,18.04
2018-04-02T23:19:34.254Z,18.06
2018-04-02T23:22:00.891Z,18.04
2018-04-02T23:24:27.598Z,18.00
2018-04-02T23:26:54.261Z,18.03
2018-04-02T23:29:20.894Z,18.02
2018-04-02T23:31:47.569Z,18.05
2018-04-02T23:34:17.281Z,18.00
2018-04-02T23:36:43.941Z,18.00
2018-04-02T23:39:11.926Z,18.02
2018-04-02T23:41:37.343Z,18.02
2018-04-02T23:44:03.980Z,17.98
2018-04-02T23:46:30.589Z,17.99
2018-04-02T23:48:57.369Z,17.97
2018-04-02T23:51:26.162Z,18.02
2018-04-02T23:53:50.674Z,18.01
2018-04-02T23:56:17.276Z,18.00
2018-04-02T23:58:43.941Z,18.01
